sensor_id;sensor_type;location;lat;lon;timestamp;P1;durP1;ratioP1;P2;durP2;ratioP2
9884;SDS011;4981;50.966;4.842;2022-09-30T00:02:19;8.90;;;6.30;;
9884;SDS011;4981;50.966;4.842;2022-09-30T00:04:46;7.23;;;5.93;;
9884;SDS011;4981;50.966;4.842;2022-09-30T00:07:14;7.37;;;5.87;;
9884;SDS011;4981;50.966;4.842;2022-09-30T00:09:41;8.97;;;6.50;;
9884;SDS011;4981;50.966;4.842;2022-09-30T00:12:08;10.53;;;5.70;;
9884;SDS011;4981;50.966;4.842;2022-09-30T00:14:36;7.07;;;6.30;;
9884;SDS011;4981;50.966;4.842;2022-09-30T00:17:03;12.03;;;6.23;;
9884;SDS011;4981;50.966;4.842;2022-09-30T00:19:32;8.03;;;6.30;;
9884;SDS011;4981;50.966;4.842;2022-09-30T00:22:00;9.00;;;6.00;;
9884;SDS011;4981;50.966;4.842;2022-09-30T00:24:27;7.43;;;5.97;;
9884;SDS011;4981;50.966;4.842;2022-09-30T00:26:55;8.43;;;6.47;;
9884;SDS011;4981;50.966;4.842;2022-09-30T00:29:22;8.70;;;6.53;;
9884;SDS011;4981;50.966;4.842;2022-09-30T00:31:50;8.50;;;6.40;;
9884;SDS011;4981;50.966;4.842;2022-09-30T00:34:17;8.13;;;6.50;;
9884;SDS011;4981;50.966;4.842;2022-09-30T00:36:47;7.23;;;6.00;;
9884;SDS011;4981;50.966;4.842;2022-09-30T00:39:16;7.23;;;6.37;;
9884;SDS011;4981;50.966;4.842;2022-09-30T00:41:46;6.90;;;6.20;;
9884;SDS011;4981;50.966;4.842;2022-09-30T00:47:29;6.63;;;5.97;;
9884;SDS011;4981;50.966;4.842;2022-09-30T00:50:05;8.33;;;6.63;;
9884;SDS011;4981;50.966;4.842;2022-09-30T00:52:44;7.77;;;6.30;;
9884;SDS011;4981;50.966;4.842;2022-09-30T00:55:29;7.20;;;5.93;;
9884;SDS011;4981;50.966;4.842;2022-09-30T00:58:02;7.73;;;6.63;;
9884;SDS011;4981;50.966;4.842;2022-09-30T01:00:31;7.00;;;6.33;;
9884;SDS011;4981;50.966;4.842;2022-09-30T01:02:58;7.23;;;6.53;;
9884;SDS011;4981;50.966;4.842;2022-09-30T01:05:26;7.80;;;6.63;;
9884;SDS011;4981;50.966;4.842;2022-09-30T01:07:58;8.83;;;6.43;;
9884;SDS011;4981;50.966;4.842;2022-09-30T01:10:27;8.87;;;6.17;;
9884;SDS011;4981;50.966;4.842;2022-09-30T01:12:55;8.60;;;7.10;;
9884;SDS011;4981;50.966;4.842;2022-09-30T01:15:25;8.63;;;7.10;;
9884;SDS011;4981;50.966;4.842;2022-09-30T01:18:02;11.37;;;8.03;;
9884;SDS011;4981;50.966;4.842;2022-09-30T01:20:40;8.03;;;6.67;;
9884;SDS011;4981;50.966;4.842;2022-09-30T01:32:47;8.30;;;7.13;;
9884;SDS011;4981;50.966;4.842;2022-09-30T01:35:44;9.53;;;6.97;;
9884;SDS011;4981;50.966;4.842;2022-09-30T01:38:24;9.00;;;7.70;;
9884;SDS011;4981;50.966;4.842;2022-09-30T01:40:57;11.37;;;7.80;;
9884;SDS011;4981;50.966;4.842;2022-09-30T01:43:34;8.93;;;8.03;;
9884;SDS011;4981;50.966;4.842;2022-09-30T01:46:10;10.10;;;7.60;;
9884;SDS011;4981;50.966;4.842;2022-09-30T01:48:50;8.30;;;7.23;;
9884;SDS011;4981;50.966;4.842;2022-09-30T01:51:24;10.50;;;7.50;;
9884;SDS011;4981;50.966;4.842;2022-09-30T01:53:59;8.37;;;7.17;;
9884;SDS011;4981;50.966;4.842;2022-09-30T01:56:33;9.83;;;8.00;;
9884;SDS011;4981;50.966;4.842;2022-09-30T01:59:08;9.63;;;8.63;;
9884;SDS011;4981;50.966;4.842;2022-09-30T02:01:41;10.60;;;8.77;;
9884;SDS011;4981;50.966;4.842;2022-09-30T02:04:16;8.83;;;6.80;;
9884;SDS011;4981;50.966;4.842;2022-09-30T02:06:48;7.37;;;6.60;;
9884;SDS011;4981;50.966;4.842;2022-09-30T02:09:20;8.07;;;7.20;;
9884;SDS011;4981;50.966;4.842;2022-09-30T02:11:52;10.70;;;7.70;;
9884;SDS011;4981;50.966;4.842;2022-09-30T02:14:22;8.50;;;7.30;;
9884;SDS011;4981;50.966;4.842;2022-09-30T02:16:54;10.57;;;8.27;;
9884;SDS011;4981;50.966;4.842;2022-09-30T02:19:29;10.70;;;8.00;;
9884;SDS011;4981;50.966;4.842;2022-09-30T02:22:03;8.30;;;7.07;;
9884;SDS011;4981;50.966;4.842;2022-09-30T02:24:36;8.93;;;7.70;;
9884;SDS011;4981;50.966;4.842;2022-09-30T02:27:05;9.83;;;7.13;;
9884;SDS011;4981;50.966;4.842;2022-09-30T02:29:40;11.57;;;7.80;;
9884;SDS011;4981;50.966;4.842;2022-09-30T02:32:12;11.70;;;7.87;;
9884;SDS011;4981;50.966;4.842;2022-09-30T02:34:47;10.23;;;7.90;;
9884;SDS011;4981;50.966;4.842;2022-09-30T02:37:19;8.33;;;7.03;;
9884;SDS011;4981;50.966;4.842;2022-09-30T02:39:51;17.23;;;10.00;;
9884;SDS011;4981;50.966;4.842;2022-09-30T02:42:24;8.43;;;7.57;;
9884;SDS011;4981;50.966;4.842;2022-09-30T02:44:53;10.20;;;8.70;;
9884;SDS011;4981;50.966;4.842;2022-09-30T02:47:25;10.77;;;8.57;;
9884;SDS011;4981;50.966;4.842;2022-09-30T02:50:03;11.50;;;8.73;;
9884;SDS011;4981;50.966;4.842;2022-09-30T02:52:39;9.60;;;8.33;;
9884;SDS011;4981;50.966;4.842;2022-09-30T02:55:17;8.97;;;8.07;;
9884;SDS011;4981;50.966;4.842;2022-09-30T02:57:56;11.77;;;8.07;;
9884;SDS011;4981;50.966;4.842;2022-09-30T03:00:29;9.00;;;8.10;;
9884;SDS011;4981;50.966;4.842;2022-09-30T03:02:58;11.30;;;8.80;;
9884;SDS011;4981;50.966;4.842;2022-09-30T03:05:31;13.47;;;10.37;;
9884;SDS011;4981;50.966;4.842;2022-09-30T03:07:59;11.47;;;8.93;;
9884;SDS011;4981;50.966;4.842;2022-09-30T03:10:27;11.97;;;8.30;;
9884;SDS011;4981;50.966;4.842;2022-09-30T03:13:00;11.17;;;8.80;;
9884;SDS011;4981;50.966;4.842;2022-09-30T03:15:48;13.20;;;9.43;;
9884;SDS011;4981;50.966;4.842;2022-09-30T03:18:32;9.33;;;8.40;;
9884;SDS011;4981;50.966;4.842;2022-09-30T03:21:11;8.80;;;7.90;;
9884;SDS011;4981;50.966;4.842;2022-09-30T03:27:08;12.10;;;10.00;;
9884;SDS011;4981;50.966;4.842;2022-09-30T03:29:44;11.10;;;8.27;;
9884;SDS011;4981;50.966;4.842;2022-09-30T03:32:28;15.77;;;10.77;;
9884;SDS011;4981;50.966;4.842;2022-09-30T03:35:03;10.47;;;8.13;;
9884;SDS011;4981;50.966;4.842;2022-09-30T03:37:45;13.07;;;9.77;;
9884;SDS011;4981;50.966;4.842;2022-09-30T03:40:21;11.03;;;9.17;;
9884;SDS011;4981;50.966;4.842;2022-09-30T03:42:54;10.73;;;9.20;;
9884;SDS011;4981;50.966;4.842;2022-09-30T03:45:27;16.10;;;10.23;;
9884;SDS011;4981;50.966;4.842;2022-09-30T03:48:00;14.57;;;12.13;;
9884;SDS011;4981;50.966;4.842;2022-09-30T03:50:31;13.80;;;11.97;;
9884;SDS011;4981;50.966;4.842;2022-09-30T03:53:02;17.60;;;12.77;;
9884;SDS011;4981;50.966;4.842;2022-09-30T03:55:30;15.63;;;12.57;;
9884;SDS011;4981;50.966;4.842;2022-09-30T03:57:58;13.67;;;11.17;;
9884;SDS011;4981;50.966;4.842;2022-09-30T04:00:26;14.97;;;12.37;;
9884;SDS011;4981;50.966;4.842;2022-09-30T04:02:56;12.97;;;11.57;;
9884;SDS011;4981;50.966;4.842;2022-09-30T04:05:23;15.27;;;11.13;;
9884;SDS011;4981;50.966;4.842;2022-09-30T04:07:51;14.53;;;11.90;;
9884;SDS011;4981;50.966;4.842;2022-09-30T04:10:20;17.03;;;13.53;;
9884;SDS011;4981;50.966;4.842;2022-09-30T04:12:47;19.10;;;14.47;;
9884;SDS011;4981;50.966;4.842;2022-09-30T04:15:14;17.80;;;14.00;;
9884;SDS011;4981;50.966;4.842;2022-09-30T04:17:42;17.73;;;13.80;;
9884;SDS011;4981;50.966;4.842;2022-09-30T04:20:09;17.50;;;14.30;;
9884;SDS011;4981;50.966;4.842;2022-09-30T04:22:42;18.20;;;13.47;;
9884;SDS011;4981;50.966;4.842;2022-09-30T04:25:09;15.20;;;12.80;;
9884;SDS011;4981;50.966;4.842;2022-09-30T04:27:38;15.93;;;12.50;;
9884;SDS011;4981;50.966;4.842;2022-09-30T04:30:06;15.57;;;12.60;;
9884;SDS011;4981;50.966;4.842;2022-09-30T04:32:33;20.53;;;14.20;;
9884;SDS011;4981;50.966;4.842;2022-09-30T04:35:01;17.37;;;13.83;;
9884;SDS011;4981;50.966;4.842;2022-09-30T04:37:28;18.00;;;13.33;;
9884;SDS011;4981;50.966;4.842;2022-09-30T04:39:56;19.37;;;13.73;;
9884;SDS011;4981;50.966;4.842;2022-09-30T04:42:24;16.07;;;13.70;;
9884;SDS011;4981;50.966;4.842;2022-09-30T04:44:52;21.03;;;14.07;;
9884;SDS011;4981;50.966;4.842;2022-09-30T04:47:21;20.00;;;14.70;;
9884;SDS011;4981;50.966;4.842;2022-09-30T04:49:49;18.30;;;14.70;;
9884;SDS011;4981;50.966;4.842;2022-09-30T04:52:16;18.40;;;14.30;;
9884;SDS011;4981;50.966;4.842;2022-09-30T04:54:44;19.90;;;14.13;;
9884;SDS011;4981;50.966;4.842;2022-09-30T04:57:11;18.87;;;14.57;;
9884;SDS011;4981;50.966;4.842;2022-09-30T04:59:38;16.87;;;13.47;;
9884;SDS011;4981;50.966;4.842;2022-09-30T05:02:08;16.77;;;13.87;;
9884;SDS011;4981;50.966;4.842;2022-09-30T05:04:36;16.23;;;12.83;;
9884;SDS011;4981;50.966;4.842;2022-09-30T05:07:04;18.87;;;13.47;;
9884;SDS011;4981;50.966;4.842;2022-09-30T05:09:33;17.80;;;13.70;;
9884;SDS011;4981;50.966;4.842;2022-09-30T05:12:00;17.53;;;13.10;;
9884;SDS011;4981;50.966;4.842;2022-09-30T05:14:28;15.57;;;12.40;;
9884;SDS011;4981;50.966;4.842;2022-09-30T05:16:57;20.23;;;14.57;;
9884;SDS011;4981;50.966;4.842;2022-09-30T05:19:26;21.20;;;15.13;;
9884;SDS011;4981;50.966;4.842;2022-09-30T05:21:53;15.93;;;13.17;;
9884;SDS011;4981;50.966;4.842;2022-09-30T05:24:21;16.40;;;13.67;;
9884;SDS011;4981;50.966;4.842;2022-09-30T05:26:48;24.97;;;18.17;;
9884;SDS011;4981;50.966;4.842;2022-09-30T05:29:16;76.60;;;48.43;;
9884;SDS011;4981;50.966;4.842;2022-09-30T05:31:43;40.77;;;29.03;;
9884;SDS011;4981;50.966;4.842;2022-09-30T05:34:11;29.13;;;20.50;;
9884;SDS011;4981;50.966;4.842;2022-09-30T05:36:42;23.03;;;16.57;;
9884;SDS011;4981;50.966;4.842;2022-09-30T05:39:09;22.60;;;17.93;;
9884;SDS011;4981;50.966;4.842;2022-09-30T05:41:37;31.30;;;26.80;;
9884;SDS011;4981;50.966;4.842;2022-09-30T05:44:05;26.83;;;20.43;;
9884;SDS011;4981;50.966;4.842;2022-09-30T05:46:33;21.83;;;16.63;;
9884;SDS011;4981;50.966;4.842;2022-09-30T05:49:01;24.87;;;16.87;;
9884;SDS011;4981;50.966;4.842;2022-09-30T05:51:28;19.20;;;16.20;;
9884;SDS011;4981;50.966;4.842;2022-09-30T05:53:57;22.30;;;16.10;;
9884;SDS011;4981;50.966;4.842;2022-09-30T05:56:25;26.60;;;16.87;;
9884;SDS011;4981;50.966;4.842;2022-09-30T05:58:52;18.73;;;15.70;;
9884;SDS011;4981;50.966;4.842;2022-09-30T06:01:20;19.77;;;15.57;;
9884;SDS011;4981;50.966;4.842;2022-09-30T06:03:47;21.70;;;16.10;;
9884;SDS011;4981;50.966;4.842;2022-09-30T06:06:14;18.43;;;15.60;;
9884;SDS011;4981;50.966;4.842;2022-09-30T06:08:43;20.50;;;15.03;;
9884;SDS011;4981;50.966;4.842;2022-09-30T06:11:12;23.53;;;17.30;;
9884;SDS011;4981;50.966;4.842;2022-09-30T06:13:42;20.77;;;16.10;;
9884;SDS011;4981;50.966;4.842;2022-09-30T06:16:11;19.00;;;15.20;;
9884;SDS011;4981;50.966;4.842;2022-09-30T06:18:39;23.87;;;16.30;;
9884;SDS011;4981;50.966;4.842;2022-09-30T06:21:07;19.87;;;16.07;;
9884;SDS011;4981;50.966;4.842;2022-09-30T06:23:36;21.50;;;15.00;;
9884;SDS011;4981;50.966;4.842;2022-09-30T06:26:05;17.10;;;15.27;;
9884;SDS011;4981;50.966;4.842;2022-09-30T06:28:37;17.87;;;15.23;;
9884;SDS011;4981;50.966;4.842;2022-09-30T06:31:04;20.27;;;15.97;;
9884;SDS011;4981;50.966;4.842;2022-09-30T06:33:32;21.40;;;16.40;;
9884;SDS011;4981;50.966;4.842;2022-09-30T06:36:00;21.07;;;16.87;;
9884;SDS011;4981;50.966;4.842;2022-09-30T06:38:29;20.60;;;17.40;;
9884;SDS011;4981;50.966;4.842;2022-09-30T06:40:57;24.67;;;18.87;;
9884;SDS011;4981;50.966;4.842;2022-09-30T06:43:26;25.10;;;19.03;;
9884;SDS011;4981;50.966;4.842;2022-09-30T06:45:54;21.43;;;17.60;;
9884;SDS011;4981;50.966;4.842;2022-09-30T06:48:22;21.73;;;15.80;;
9884;SDS011;4981;50.966;4.842;2022-09-30T06:50:49;24.23;;;17.80;;
9884;SDS011;4981;50.966;4.842;2022-09-30T06:53:20;22.83;;;17.93;;
9884;SDS011;4981;50.966;4.842;2022-09-30T06:55:53;20.73;;;17.43;;
9884;SDS011;4981;50.966;4.842;2022-09-30T06:58:21;26.43;;;20.00;;
9884;SDS011;4981;50.966;4.842;2022-09-30T07:00:57;23.17;;;19.63;;
9884;SDS011;4981;50.966;4.842;2022-09-30T07:03:26;29.10;;;20.43;;
9884;SDS011;4981;50.966;4.842;2022-09-30T07:05:56;27.77;;;20.23;;
9884;SDS011;4981;50.966;4.842;2022-09-30T07:08:24;24.17;;;18.43;;
9884;SDS011;4981;50.966;4.842;2022-09-30T07:10:55;25.40;;;19.17;;
9884;SDS011;4981;50.966;4.842;2022-09-30T07:13:23;24.47;;;20.87;;
9884;SDS011;4981;50.966;4.842;2022-09-30T07:15:51;25.20;;;20.17;;
9884;SDS011;4981;50.966;4.842;2022-09-30T07:18:22;23.77;;;20.07;;
9884;SDS011;4981;50.966;4.842;2022-09-30T07:20:53;20.80;;;18.00;;
9884;SDS011;4981;50.966;4.842;2022-09-30T07:23:21;23.00;;;16.80;;
9884;SDS011;4981;50.966;4.842;2022-09-30T07:25:51;20.87;;;17.40;;
9884;SDS011;4981;50.966;4.842;2022-09-30T07:28:20;24.70;;;19.33;;
9884;SDS011;4981;50.966;4.842;2022-09-30T07:30:52;21.83;;;17.83;;
9884;SDS011;4981;50.966;4.842;2022-09-30T07:33:22;19.47;;;17.23;;
9884;SDS011;4981;50.966;4.842;2022-09-30T07:35:50;20.47;;;16.70;;
9884;SDS011;4981;50.966;4.842;2022-09-30T07:38:18;26.37;;;16.70;;
9884;SDS011;4981;50.966;4.842;2022-09-30T07:40:50;21.67;;;17.60;;
9884;SDS011;4981;50.966;4.842;2022-09-30T07:43:19;21.90;;;16.73;;
9884;SDS011;4981;50.966;4.842;2022-09-30T07:45:47;19.43;;;15.97;;
9884;SDS011;4981;50.966;4.842;2022-09-30T07:48:15;22.73;;;16.30;;
9884;SDS011;4981;50.966;4.842;2022-09-30T07:51:02;20.47;;;14.90;;
9884;SDS011;4981;50.966;4.842;2022-09-30T07:53:30;19.83;;;15.30;;
9884;SDS011;4981;50.966;4.842;2022-09-30T07:56:00;24.37;;;15.63;;
9884;SDS011;4981;50.966;4.842;2022-09-30T07:58:29;24.23;;;16.20;;
9884;SDS011;4981;50.966;4.842;2022-09-30T08:00:56;19.57;;;14.57;;
9884;SDS011;4981;50.966;4.842;2022-09-30T08:03:24;17.87;;;15.60;;
9884;SDS011;4981;50.966;4.842;2022-09-30T08:05:51;18.13;;;14.20;;
9884;SDS011;4981;50.966;4.842;2022-09-30T08:08:20;16.43;;;14.73;;
9884;SDS011;4981;50.966;4.842;2022-09-30T08:10:47;14.93;;;13.03;;
9884;SDS011;4981;50.966;4.842;2022-09-30T08:13:15;16.47;;;13.57;;
9884;SDS011;4981;50.966;4.842;2022-09-30T08:15:44;17.10;;;14.50;;
9884;SDS011;4981;50.966;4.842;2022-09-30T08:18:11;17.37;;;14.07;;
9884;SDS011;4981;50.966;4.842;2022-09-30T08:20:38;18.57;;;14.63;;
9884;SDS011;4981;50.966;4.842;2022-09-30T08:23:05;17.30;;;13.17;;
9884;SDS011;4981;50.966;4.842;2022-09-30T08:25:34;16.37;;;13.33;;
9884;SDS011;4981;50.966;4.842;2022-09-30T08:28:02;15.47;;;12.77;;
9884;SDS011;4981;50.966;4.842;2022-09-30T08:30:29;18.00;;;13.43;;
9884;SDS011;4981;50.966;4.842;2022-09-30T08:32:56;17.00;;;12.33;;
9884;SDS011;4981;50.966;4.842;2022-09-30T08:35:24;14.97;;;12.93;;
9884;SDS011;4981;50.966;4.842;2022-09-30T08:37:51;16.77;;;12.60;;
9884;SDS011;4981;50.966;4.842;2022-09-30T08:40:20;18.27;;;12.33;;
9884;SDS011;4981;50.966;4.842;2022-09-30T08:42:58;13.20;;;11.63;;
9884;SDS011;4981;50.966;4.842;2022-09-30T08:45:46;15.87;;;12.37;;
9884;SDS011;4981;50.966;4.842;2022-09-30T08:48:27;17.70;;;12.70;;
9884;SDS011;4981;50.966;4.842;2022-09-30T08:51:03;17.57;;;11.30;;
9884;SDS011;4981;50.966;4.842;2022-09-30T08:53:39;15.27;;;11.20;;
9884;SDS011;4981;50.966;4.842;2022-09-30T08:56:09;15.10;;;11.50;;
9884;SDS011;4981;50.966;4.842;2022-09-30T08:58:44;14.03;;;11.17;;
9884;SDS011;4981;50.966;4.842;2022-09-30T09:01:18;14.67;;;10.73;;
9884;SDS011;4981;50.966;4.842;2022-09-30T09:03:51;16.70;;;11.03;;
9884;SDS011;4981;50.966;4.842;2022-09-30T09:06:20;15.47;;;10.60;;
9884;SDS011;4981;50.966;4.842;2022-09-30T09:08:57;15.23;;;10.60;;
9884;SDS011;4981;50.966;4.842;2022-09-30T09:11:46;13.03;;;9.73;;
9884;SDS011;4981;50.966;4.842;2022-09-30T09:14:33;13.87;;;10.77;;
9884;SDS011;4981;50.966;4.842;2022-09-30T09:17:10;12.77;;;10.63;;
9884;SDS011;4981;50.966;4.842;2022-09-30T09:19:52;13.37;;;9.03;;
9884;SDS011;4981;50.966;4.842;2022-09-30T09:22:27;14.90;;;9.83;;
9884;SDS011;4981;50.966;4.842;2022-09-30T09:24:57;13.63;;;9.73;;
9884;SDS011;4981;50.966;4.842;2022-09-30T09:27:25;12.23;;;9.07;;
9884;SDS011;4981;50.966;4.842;2022-09-30T09:30:05;13.37;;;9.20;;
9884;SDS011;4981;50.966;4.842;2022-09-30T09:32:34;13.43;;;9.57;;
9884;SDS011;4981;50.966;4.842;2022-09-30T09:35:05;16.37;;;9.07;;
9884;SDS011;4981;50.966;4.842;2022-09-30T09:37:41;11.20;;;7.90;;
9884;SDS011;4981;50.966;4.842;2022-09-30T09:40:33;12.60;;;8.30;;
9884;SDS011;4981;50.966;4.842;2022-09-30T09:43:22;11.60;;;7.93;;
9884;SDS011;4981;50.966;4.842;2022-09-30T09:46:01;11.50;;;7.60;;
9884;SDS011;4981;50.966;4.842;2022-09-30T09:48:35;9.63;;;7.27;;
9884;SDS011;4981;50.966;4.842;2022-09-30T09:51:03;11.07;;;8.20;;
9884;SDS011;4981;50.966;4.842;2022-09-30T09:53:44;13.10;;;8.73;;
9884;SDS011;4981;50.966;4.842;2022-09-30T09:56:15;14.67;;;7.90;;
9884;SDS011;4981;50.966;4.842;2022-09-30T09:59:04;11.77;;;7.20;;
9884;SDS011;4981;50.966;4.842;2022-09-30T10:01:36;10.13;;;6.70;;
9884;SDS011;4981;50.966;4.842;2022-09-30T10:04:06;10.17;;;6.50;;
9884;SDS011;4981;50.966;4.842;2022-09-30T10:06:42;10.67;;;6.93;;
9884;SDS011;4981;50.966;4.842;2022-09-30T10:09:25;8.80;;;5.83;;
9884;SDS011;4981;50.966;4.842;2022-09-30T10:14:47;10.17;;;5.67;;
9884;SDS011;4981;50.966;4.842;2022-09-30T10:17:20;8.53;;;5.90;;
9884;SDS011;4981;50.966;4.842;2022-09-30T10:19:54;8.77;;;6.30;;
9884;SDS011;4981;50.966;4.842;2022-09-30T10:22:26;12.03;;;6.67;;
9884;SDS011;4981;50.966;4.842;2022-09-30T10:25:08;7.30;;;4.57;;
9884;SDS011;4981;50.966;4.842;2022-09-30T10:27:46;12.23;;;5.17;;
9884;SDS011;4981;50.966;4.842;2022-09-30T10:30:28;8.10;;;6.10;;
9884;SDS011;4981;50.966;4.842;2022-09-30T10:33:11;7.87;;;6.53;;
9884;SDS011;4981;50.966;4.842;2022-09-30T10:36:00;8.23;;;5.10;;
9884;SDS011;4981;50.966;4.842;2022-09-30T10:38:33;9.57;;;4.73;;
9884;SDS011;4981;50.966;4.842;2022-09-30T10:41:01;6.80;;;5.03;;
9884;SDS011;4981;50.966;4.842;2022-09-30T10:43:32;7.60;;;5.03;;
9884;SDS011;4981;50.966;4.842;2022-09-30T10:46:03;9.23;;;4.40;;
9884;SDS011;4981;50.966;4.842;2022-09-30T10:48:35;5.77;;;4.30;;
9884;SDS011;4981;50.966;4.842;2022-09-30T10:51:04;8.07;;;4.43;;
9884;SDS011;4981;50.966;4.842;2022-09-30T10:53:43;6.93;;;4.17;;
9884;SDS011;4981;50.966;4.842;2022-09-30T10:56:10;5.60;;;3.87;;
9884;SDS011;4981;50.966;4.842;2022-09-30T10:58:42;6.43;;;3.07;;
9884;SDS011;4981;50.966;4.842;2022-09-30T11:01:15;5.97;;;2.73;;
9884;SDS011;4981;50.966;4.842;2022-09-30T11:03:53;3.83;;;2.57;;
9884;SDS011;4981;50.966;4.842;2022-09-30T11:06:27;3.00;;;2.43;;
9884;SDS011;4981;50.966;4.842;2022-09-30T11:09:00;5.87;;;2.67;;
9884;SDS011;4981;50.966;4.842;2022-09-30T11:11:34;2.13;;;1.80;;
9884;SDS011;4981;50.966;4.842;2022-09-30T11:14:12;3.23;;;2.40;;
9884;SDS011;4981;50.966;4.842;2022-09-30T11:16:50;4.57;;;1.87;;
9884;SDS011;4981;50.966;4.842;2022-09-30T11:19:29;1.73;;;1.30;;
9884;SDS011;4981;50.966;4.842;2022-09-30T11:21:59;1.77;;;0.80;;
9884;SDS011;4981;50.966;4.842;2022-09-30T11:24:41;3.47;;;1.60;;
9884;SDS011;4981;50.966;4.842;2022-09-30T11:27:11;2.17;;;0.93;;
9884;SDS011;4981;50.966;4.842;2022-09-30T11:29:50;2.93;;;0.97;;
9884;SDS011;4981;50.966;4.842;2022-09-30T11:32:36;3.37;;;2.60;;
9884;SDS011;4981;50.966;4.842;2022-09-30T11:35:24;1.17;;;0.80;;
9884;SDS011;4981;50.966;4.842;2022-09-30T11:38:06;1.43;;;0.97;;
9884;SDS011;4981;50.966;4.842;2022-09-30T11:40:37;5.93;;;3.33;;
9884;SDS011;4981;50.966;4.842;2022-09-30T11:43:17;1.67;;;0.73;;
9884;SDS011;4981;50.966;4.842;2022-09-30T11:48:55;1.03;;;0.70;;
9884;SDS011;4981;50.966;4.842;2022-09-30T11:51:43;1.17;;;0.80;;
9884;SDS011;4981;50.966;4.842;2022-09-30T11:54:24;2.00;;;0.93;;
9884;SDS011;4981;50.966;4.842;2022-09-30T11:57:04;2.23;;;1.37;;
9884;SDS011;4981;50.966;4.842;2022-09-30T11:59:40;2.47;;;0.83;;
9884;SDS011;4981;50.966;4.842;2022-09-30T12:02:17;1.60;;;1.17;;
9884;SDS011;4981;50.966;4.842;2022-09-30T12:04:52;2.43;;;1.30;;
9884;SDS011;4981;50.966;4.842;2022-09-30T12:07:29;1.80;;;0.97;;
9884;SDS011;4981;50.966;4.842;2022-09-30T12:10:04;1.40;;;0.73;;
9884;SDS011;4981;50.966;4.842;2022-09-30T12:12:45;3.77;;;1.03;;
9884;SDS011;4981;50.966;4.842;2022-09-30T12:15:17;1.03;;;0.80;;
9884;SDS011;4981;50.966;4.842;2022-09-30T12:17:48;1.67;;;0.97;;
9884;SDS011;4981;50.966;4.842;2022-09-30T12:20:21;2.17;;;0.87;;
9884;SDS011;4981;50.966;4.842;2022-09-30T12:22:56;3.27;;;0.83;;
9884;SDS011;4981;50.966;4.842;2022-09-30T12:25:28;3.73;;;0.80;;
9884;SDS011;4981;50.966;4.842;2022-09-30T12:27:59;1.80;;;0.80;;
9884;SDS011;4981;50.966;4.842;2022-09-30T12:30:52;2.10;;;0.97;;
9884;SDS011;4981;50.966;4.842;2022-09-30T12:33:31;2.37;;;1.10;;
9884;SDS011;4981;50.966;4.842;2022-09-30T12:36:17;1.53;;;0.93;;
9884;SDS011;4981;50.966;4.842;2022-09-30T12:42:27;5.70;;;2.07;;
9884;SDS011;4981;50.966;4.842;2022-09-30T12:48:24;4.00;;;2.33;;
9884;SDS011;4981;50.966;4.842;2022-09-30T12:50:58;4.03;;;2.53;;
9884;SDS011;4981;50.966;4.842;2022-09-30T12:53:27;5.00;;;2.77;;
9884;SDS011;4981;50.966;4.842;2022-09-30T12:56:00;5.67;;;2.70;;
9884;SDS011;4981;50.966;4.842;2022-09-30T12:58:32;5.73;;;3.00;;
9884;SDS011;4981;50.966;4.842;2022-09-30T13:01:06;5.80;;;3.03;;
9884;SDS011;4981;50.966;4.842;2022-09-30T13:03:43;6.97;;;2.67;;
9884;SDS011;4981;50.966;4.842;2022-09-30T13:06:13;5.83;;;2.20;;
9884;SDS011;4981;50.966;4.842;2022-09-30T13:08:43;4.00;;;2.43;;
9884;SDS011;4981;50.966;4.842;2022-09-30T13:14:21;4.77;;;2.20;;
9884;SDS011;4981;50.966;4.842;2022-09-30T13:20:00;5.13;;;2.33;;
9884;SDS011;4981;50.966;4.842;2022-09-30T13:25:23;3.10;;;1.90;;
9884;SDS011;4981;50.966;4.842;2022-09-30T13:27:52;5.60;;;2.20;;
9884;SDS011;4981;50.966;4.842;2022-09-30T13:33:43;8.23;;;2.53;;
9884;SDS011;4981;50.966;4.842;2022-09-30T13:36:17;6.83;;;2.40;;
9884;SDS011;4981;50.966;4.842;2022-09-30T13:39:05;3.87;;;2.37;;
9884;SDS011;4981;50.966;4.842;2022-09-30T13:41:43;4.23;;;2.33;;
9884;SDS011;4981;50.966;4.842;2022-09-30T13:44:18;4.23;;;2.10;;
9884;SDS011;4981;50.966;4.842;2022-09-30T13:46:53;5.23;;;2.40;;
9884;SDS011;4981;50.966;4.842;2022-09-30T13:49:31;4.73;;;2.60;;
9884;SDS011;4981;50.966;4.842;2022-09-30T13:52:05;5.20;;;2.83;;
9884;SDS011;4981;50.966;4.842;2022-09-30T13:54:34;3.77;;;2.70;;
9884;SDS011;4981;50.966;4.842;2022-09-30T13:57:10;7.83;;;2.83;;
9884;SDS011;4981;50.966;4.842;2022-09-30T13:59:46;4.97;;;3.13;;
9884;SDS011;4981;50.966;4.842;2022-09-30T14:15:05;5.60;;;2.17;;
9884;SDS011;4981;50.966;4.842;2022-09-30T14:18:02;2.27;;;1.83;;
9884;SDS011;4981;50.966;4.842;2022-09-30T14:21:00;4.10;;;2.00;;
9884;SDS011;4981;50.966;4.842;2022-09-30T14:23:37;5.63;;;2.23;;
9884;SDS011;4981;50.966;4.842;2022-09-30T14:26:09;5.23;;;2.13;;
9884;SDS011;4981;50.966;4.842;2022-09-30T14:28:52;2.43;;;1.57;;
9884;SDS011;4981;50.966;4.842;2022-09-30T14:31:25;2.83;;;1.10;;
9884;SDS011;4981;50.966;4.842;2022-09-30T14:33:58;4.17;;;1.20;;
9884;SDS011;4981;50.966;4.842;2022-09-30T14:36:29;1.73;;;1.10;;
9884;SDS011;4981;50.966;4.842;2022-09-30T14:38:57;2.53;;;1.23;;
9884;SDS011;4981;50.966;4.842;2022-09-30T14:41:26;1.77;;;1.00;;
9884;SDS011;4981;50.966;4.842;2022-09-30T14:43:56;1.60;;;1.30;;
9884;SDS011;4981;50.966;4.842;2022-09-30T14:46:28;6.13;;;1.50;;
9884;SDS011;4981;50.966;4.842;2022-09-30T14:48:59;1.83;;;1.10;;
9884;SDS011;4981;50.966;4.842;2022-09-30T14:51:35;1.60;;;1.00;;
9884;SDS011;4981;50.966;4.842;2022-09-30T14:54:13;1.53;;;1.03;;
9884;SDS011;4981;50.966;4.842;2022-09-30T14:56:43;4.33;;;1.40;;
9884;SDS011;4981;50.966;4.842;2022-09-30T14:59:13;1.33;;;0.90;;
9884;SDS011;4981;50.966;4.842;2022-09-30T15:01:43;2.90;;;0.97;;
9884;SDS011;4981;50.966;4.842;2022-09-30T15:04:14;1.93;;;1.03;;
9884;SDS011;4981;50.966;4.842;2022-09-30T15:06:46;3.30;;;1.20;;
9884;SDS011;4981;50.966;4.842;2022-09-30T15:09:17;2.37;;;1.20;;
9884;SDS011;4981;50.966;4.842;2022-09-30T15:11:48;2.00;;;1.00;;
9884;SDS011;4981;50.966;4.842;2022-09-30T15:14:17;1.37;;;0.90;;
9884;SDS011;4981;50.966;4.842;2022-09-30T15:16:46;2.13;;;1.03;;
9884;SDS011;4981;50.966;4.842;2022-09-30T15:19:17;1.67;;;1.10;;
9884;SDS011;4981;50.966;4.842;2022-09-30T15:21:48;1.80;;;1.30;;
9884;SDS011;4981;50.966;4.842;2022-09-30T15:24:17;2.93;;;1.33;;
9884;SDS011;4981;50.966;4.842;2022-09-30T15:26:46;1.87;;;1.40;;
9884;SDS011;4981;50.966;4.842;2022-09-30T15:29:15;1.83;;;1.60;;
9884;SDS011;4981;50.966;4.842;2022-09-30T15:31:43;2.27;;;1.27;;
9884;SDS011;4981;50.966;4.842;2022-09-30T15:34:13;1.20;;;1.10;;
9884;SDS011;4981;50.966;4.842;2022-09-30T15:36:42;5.10;;;1.40;;
9884;SDS011;4981;50.966;4.842;2022-09-30T15:39:17;2.70;;;1.03;;
9884;SDS011;4981;50.966;4.842;2022-09-30T15:41:47;3.60;;;1.20;;
9884;SDS011;4981;50.966;4.842;2022-09-30T15:44:16;1.43;;;0.97;;
9884;SDS011;4981;50.966;4.842;2022-09-30T15:49:33;2.33;;;1.20;;
9884;SDS011;4981;50.966;4.842;2022-09-30T15:55:02;2.53;;;1.57;;
9884;SDS011;4981;50.966;4.842;2022-09-30T16:01:08;2.30;;;1.20;;
9884;SDS011;4981;50.966;4.842;2022-09-30T16:03:45;2.80;;;1.20;;
9884;SDS011;4981;50.966;4.842;2022-09-30T16:06:15;3.13;;;1.50;;
9884;SDS011;4981;50.966;4.842;2022-09-30T16:08:51;3.20;;;1.40;;
9884;SDS011;4981;50.966;4.842;2022-09-30T16:11:27;2.57;;;1.57;;
9884;SDS011;4981;50.966;4.842;2022-09-30T16:13:56;2.70;;;1.87;;
9884;SDS011;4981;50.966;4.842;2022-09-30T16:16:28;8.13;;;5.90;;
9884;SDS011;4981;50.966;4.842;2022-09-30T16:18:57;2.73;;;1.20;;
9884;SDS011;4981;50.966;4.842;2022-09-30T16:21:28;3.00;;;1.20;;
9884;SDS011;4981;50.966;4.842;2022-09-30T16:24:12;6.07;;;3.67;;
9884;SDS011;4981;50.966;4.842;2022-09-30T16:29:58;3.23;;;1.40;;
9884;SDS011;4981;50.966;4.842;2022-09-30T16:32:27;2.73;;;1.50;;
9884;SDS011;4981;50.966;4.842;2022-09-30T16:34:57;3.93;;;1.20;;
9884;SDS011;4981;50.966;4.842;2022-09-30T16:37:25;2.87;;;1.23;;
9884;SDS011;4981;50.966;4.842;2022-09-30T16:39:53;6.60;;;1.60;;
9884;SDS011;4981;50.966;4.842;2022-09-30T16:42:24;2.30;;;1.23;;